createdAt,value
2018-01-11T00:25:42.213Z,100369
2018-01-11T00:28:10.399Z,100374
2018-01-11T00:33:31.723Z,100160
2018-01-11T01:30:38.149Z,100391
2018-01-11T02:45:46.162Z,100436
2018-01-11T02:48:15.316Z,100421
2018-01-11T02:53:21.954Z,100430
2018-01-11T03:06:02.409Z,100433
2018-01-11T03:14:28.577Z,100442
2018-01-11T03:34:28.297Z,100460
2018-01-11T04:34:30.153Z,100481
2018-01-11T04:46:13.201Z,100494
2018-01-11T04:51:20.124Z,100492
2018-01-11T04:53:50.990Z,100490
2018-01-11T04:56:19.850Z,100496
2018-01-11T05:01:35.352Z,100499
2018-01-11T05:09:24.330Z,100505
2018-01-11T05:18:13.368Z,100512
2018-01-11T05:23:19.626Z,100514
2018-01-11T05:28:25.455Z,100526
2018-01-11T05:30:56.506Z,100516
2018-01-11T05:33:24.918Z,100526
2018-01-11T05:38:38.967Z,100534
2018-01-11T05:41:07.057Z,100535
2018-01-11T05:43:40.853Z,100531
2018-01-11T05:46:09.748Z,100547
2018-01-11T05:53:57.092Z,100552
2018-01-11T05:56:26.137Z,100563
2018-01-11T05:58:58.185Z,100564
2018-01-11T06:01:28.085Z,100571
2018-01-11T06:06:32.520Z,100572
2018-01-11T06:09:01.566Z,100575
2018-01-11T06:11:33.904Z,100582
2018-01-11T06:14:02.004Z,100583
2018-01-11T06:21:38.098Z,100603
2018-01-11T06:24:16.812Z,100605
2018-01-11T06:32:03.772Z,100616
2018-01-11T06:39:40.969Z,100622
2018-01-11T06:48:04.473Z,100637
2018-01-11T06:50:32.588Z,100643
2018-01-11T06:53:00.676Z,100637
2018-01-11T06:55:29.123Z,100647
2018-01-11T06:58:02.716Z,100640
2018-01-11T07:00:31.689Z,100648
2018-01-11T07:02:59.819Z,100657
2018-01-11T07:05:32.788Z,100653
2018-01-11T07:08:05.572Z,100655
2018-01-11T07:10:34.025Z,100664
2018-01-11T07:13:04.898Z,100663
2018-01-11T07:15:34.041Z,100665
2018-01-11T07:18:04.165Z,100667
2018-01-11T07:20:32.381Z,100672
2018-01-11T07:23:01.433Z,100672
2018-01-11T07:25:29.567Z,100674
2018-01-11T07:27:57.772Z,100681
2018-01-11T07:30:27.308Z,100678
2018-01-11T07:32:55.596Z,100681
2018-01-11T07:35:27.636Z,100687
2018-01-11T07:37:55.748Z,100684
2018-01-11T07:40:25.096Z,100691
2018-01-11T07:42:53.984Z,100694
2018-01-11T07:49:30.047Z,100704
2018-01-11T07:52:00.419Z,100695
2018-01-11T07:54:28.582Z,100701
2018-01-11T07:56:56.731Z,100716
2018-01-11T07:59:26.284Z,100717
2018-01-11T08:01:54.394Z,100712
2018-01-11T08:09:50.699Z,100731
2018-01-11T08:12:23.916Z,100727
2018-01-11T08:14:54.075Z,100733
2018-01-11T08:20:13.493Z,100742
2018-01-11T08:22:46.400Z,100747
2018-01-11T08:25:15.038Z,100742
2018-01-11T08:27:50.039Z,100753
2018-01-11T08:35:30.267Z,100762
2018-01-11T08:40:37.762Z,100768
2018-01-11T08:45:40.169Z,100769
2018-01-11T08:50:42.728Z,100776
2018-01-11T08:53:13.432Z,100787
2018-01-11T09:01:09.664Z,100783
2018-01-11T09:06:59.308Z,100799
2018-01-11T09:09:27.432Z,100799
2018-01-11T09:14:33.024Z,100806
2018-01-11T09:17:06.418Z,100812
2018-01-11T09:23:41.666Z,100814
2018-01-11T09:28:54.951Z,100820
2018-01-11T09:31:23.086Z,100828
2018-01-11T09:38:06.757Z,100843
2018-01-11T09:48:26.419Z,100862
2018-01-11T09:50:56.255Z,100855
2018-01-11T09:56:23.392Z,100867
2018-01-11T09:58:55.400Z,100861
2018-01-11T10:01:25.382Z,100859
2018-01-11T10:03:55.293Z,100865
2018-01-11T10:09:01.663Z,100874
2018-01-11T10:11:30.743Z,100864
2018-01-11T10:14:03.827Z,100866
2018-01-11T10:23:37.545Z,100871
2018-01-11T10:26:06.784Z,100868
2018-01-11T10:28:35.725Z,100870
2018-01-11T10:33:55.461Z,100873
2018-01-11T10:36:24.542Z,100877
2018-01-11T10:39:20.772Z,100883
2018-01-11T10:41:58.111Z,100883
2018-01-11T10:44:31.227Z,100887
2018-01-11T10:47:02.156Z,100890
2018-01-11T10:52:26.901Z,100889
2018-01-11T11:00:03.875Z,100894
2018-01-11T11:02:40.485Z,100898
2018-01-11T11:05:09.539Z,100893
2018-01-11T11:07:37.632Z,100890
2018-01-11T11:12:42.434Z,100897
2018-01-11T11:15:17.177Z,100913
2018-01-11T11:17:47.236Z,100901
2018-01-11T11:20:16.573Z,100909
2018-01-11T11:22:51.047Z,100912
2018-01-11T11:25:19.278Z,100898
2018-01-11T11:27:52.361Z,100895
2018-01-11T11:30:21.283Z,100896
2018-01-11T11:32:54.262Z,100896
2018-01-11T11:37:59.605Z,100901
2018-01-11T11:40:33.740Z,100906
2018-01-11T11:45:53.738Z,100906
2018-01-11T11:48:24.722Z,100905
2018-01-11T11:50:59.887Z,100902
2018-01-11T11:53:31.782Z,100908
2018-01-11T11:56:00.973Z,100903
2018-01-11T11:58:41.822Z,100900
2018-01-11T12:01:10.755Z,100905
2018-01-11T12:07:04.062Z,100900
2018-01-11T12:09:34.529Z,100905
2018-01-11T12:14:37.926Z,100899
2018-01-11T12:19:45.281Z,100901
2018-01-11T12:24:46.705Z,100901
2018-01-11T12:30:37.320Z,100901
2018-01-11T12:38:19.424Z,100907
2018-01-11T12:40:49.132Z,100916
2018-01-11T12:43:19.849Z,100902
2018-01-11T12:45:47.953Z,100905
2018-01-11T12:50:53.354Z,100908
2018-01-11T12:53:28.312Z,100912
2018-01-11T12:56:00.738Z,100920
2018-01-11T12:58:28.827Z,100917
2018-01-11T13:00:59.608Z,100926
2018-01-11T13:03:27.729Z,100929
2018-01-11T13:08:48.942Z,100937
2018-01-11T13:11:18.621Z,100923
2018-01-11T13:13:50.579Z,100931
2018-01-11T13:16:21.165Z,100939
2018-01-11T13:18:52.949Z,100945
2018-01-11T13:21:26.177Z,100951
2018-01-11T13:32:54.813Z,100966
2018-01-11T13:35:26.942Z,100963
2018-01-11T13:43:34.448Z,100972
2018-01-11T13:46:03.541Z,100981
2018-01-11T13:48:35.999Z,100979
2018-01-11T13:53:40.227Z,100987
2018-01-11T13:56:11.911Z,100990
2018-01-11T13:58:42.585Z,100992
2018-01-11T14:03:55.789Z,101005
2018-01-11T14:09:00.371Z,101008
2018-01-11T14:11:28.732Z,101007
2018-01-11T14:14:00.662Z,101015
2018-01-11T14:16:28.766Z,101006
2018-01-11T14:21:34.093Z,101013
2018-01-11T14:24:02.177Z,101019
2018-01-11T14:29:13.848Z,101025
2018-01-11T14:34:17.356Z,101036
2018-01-11T14:36:53.479Z,101032
2018-01-11T14:41:55.995Z,101037
2018-01-11T14:44:27.991Z,101047
2018-01-11T14:46:56.080Z,101059
2018-01-11T14:52:15.053Z,101062
2018-01-11T14:57:27.175Z,101054
2018-01-11T15:00:04.149Z,101066
2018-01-11T15:13:11.801Z,101081
2018-01-11T15:18:16.786Z,101089
2018-01-11T15:20:59.370Z,101089
2018-01-11T15:23:27.473Z,101086
2018-01-11T15:26:04.708Z,101088
2018-01-11T15:28:35.347Z,101096
2018-01-11T15:35:30.498Z,101102
2018-01-11T15:38:02.619Z,101108
2018-01-11T15:40:32.193Z,101107
2018-01-11T15:43:04.889Z,101104
2018-01-11T15:45:33.771Z,101114
2018-01-11T15:48:03.848Z,101109
2018-01-11T15:50:32.932Z,101112
2018-01-11T15:53:09.045Z,101123
2018-01-11T16:03:39.885Z,101143
2018-01-11T16:06:08.265Z,101138
2018-01-11T16:08:42.221Z,101148
2018-01-11T16:11:11.361Z,101140
2018-01-11T16:13:44.376Z,101145
2018-01-11T16:16:14.388Z,101145
2018-01-11T16:21:25.564Z,101151
2018-01-11T16:27:09.930Z,101148
2018-01-11T16:29:44.629Z,101151
2018-01-11T16:32:14.492Z,101157
2018-01-11T16:34:42.652Z,101164
2018-01-11T16:37:11.334Z,101160
2018-01-11T16:39:43.052Z,101161
2018-01-11T16:42:11.966Z,101166
2018-01-11T16:44:45.690Z,101178
2018-01-11T16:53:50.096Z,101182
2018-01-11T16:56:22.315Z,101184
2018-01-11T16:58:50.731Z,101188
2018-01-11T17:01:20.896Z,101193
2018-01-11T17:03:51.423Z,101199
2018-01-11T17:06:23.539Z,101204
2018-01-11T17:08:51.803Z,101199
2018-01-11T17:11:22.342Z,101200
2018-01-11T17:13:50.484Z,101208
2018-01-11T17:16:18.611Z,101202
2018-01-11T17:21:20.029Z,101210
2018-01-11T17:23:49.061Z,101215
2018-01-11T17:26:17.146Z,101217
2018-01-11T17:28:46.277Z,101214
2018-01-11T17:31:14.424Z,101220
2018-01-11T17:33:44.434Z,101230
2018-01-11T17:36:12.680Z,101226
2018-01-11T17:38:41.711Z,101233
2018-01-11T17:41:10.911Z,101226
2018-01-11T17:43:39.162Z,101231
2018-01-11T17:48:40.688Z,101231
2018-01-11T17:51:15.864Z,101232
2018-01-11T17:53:47.014Z,101237
2018-01-11T17:58:51.573Z,101236
2018-01-11T18:01:20.816Z,101239
2018-01-11T18:03:49.794Z,101235
2018-01-11T18:06:19.680Z,101243
2018-01-11T18:08:51.133Z,101232
2018-01-11T18:11:19.228Z,101244
2018-01-11T18:13:54.265Z,101244
2018-01-11T18:16:23.132Z,101242
2018-01-11T18:18:51.322Z,101248
2018-01-11T18:21:20.214Z,101254
2018-01-11T18:26:29.555Z,101257
2018-01-11T18:28:58.621Z,101250
2018-01-11T18:34:05.865Z,101249
2018-01-11T18:36:36.742Z,101256
2018-01-11T18:39:05.859Z,101266
2018-01-11T18:41:34.080Z,101264
2018-01-11T18:44:04.661Z,101267
2018-01-11T18:46:33.821Z,101261
2018-01-11T18:49:08.298Z,101263
2018-01-11T18:51:36.461Z,101273
2018-01-11T18:54:04.608Z,101277
2018-01-11T18:56:32.774Z,101280
2018-01-11T18:59:00.871Z,101280
2018-01-11T19:01:29.027Z,101282
2018-01-11T19:03:57.156Z,101288
2018-01-11T19:06:26.089Z,101295
2018-01-11T19:08:55.103Z,101299
2018-01-11T19:11:23.175Z,101297
2018-01-11T19:13:51.320Z,101300
2018-01-11T19:16:19.423Z,101302
2018-01-11T19:22:51.653Z,101306
2018-01-11T19:25:20.564Z,101311
2018-01-11T19:30:41.791Z,101312
2018-01-11T19:33:10.633Z,101309
2018-01-11T19:35:39.293Z,101304
2018-01-11T19:38:11.277Z,101314
2018-01-11T19:40:39.393Z,101313
2018-01-11T19:43:08.314Z,101320
2018-01-11T19:45:36.407Z,101334
2018-01-11T19:48:05.195Z,101327
2018-01-11T19:50:33.329Z,101334
2018-01-11T19:53:02.217Z,101329
2018-01-11T19:55:31.155Z,101340
2018-01-11T19:57:59.233Z,101343
2018-01-11T20:00:27.587Z,101334
2018-01-11T20:02:55.688Z,101348
2018-01-11T20:05:23.911Z,101347
2018-01-11T20:11:08.253Z,101352
2018-01-11T20:13:40.655Z,101358
2018-01-11T20:16:09.564Z,101368
2018-01-11T20:18:41.567Z,101362
2018-01-11T20:21:09.855Z,101363
2018-01-11T20:23:39.823Z,101372
2018-01-11T20:26:08.751Z,101375
2018-01-11T20:31:16.908Z,101374
2018-01-11T20:33:51.749Z,101376
2018-01-11T20:36:19.904Z,101375
2018-01-11T20:38:48.087Z,101387
2018-01-11T20:41:16.977Z,101378
2018-01-11T20:43:45.052Z,101382
2018-01-11T20:46:14.930Z,101379
2018-01-11T20:48:43.155Z,101378
2018-01-11T20:51:12.550Z,101379
2018-01-11T20:53:41.340Z,101383
2018-01-11T20:56:10.279Z,101380
2018-01-11T20:58:38.369Z,101388
2018-01-11T21:01:06.605Z,101374
2018-01-11T21:03:34.696Z,101387
2018-01-11T21:06:04.734Z,101384
2018-01-11T21:08:35.720Z,101380
2018-01-11T21:11:03.820Z,101389
2018-01-11T21:22:17.906Z,101391
2018-01-11T21:24:46.089Z,101395
2018-01-11T21:27:14.193Z,101404
2018-01-11T21:29:43.151Z,101402
2018-01-11T21:32:12.064Z,101405
2018-01-11T22:37:29.671Z,101481
2018-01-11T22:40:00.496Z,101474
2018-01-11T22:48:24.366Z,101476
2018-01-11T22:51:01.273Z,101484
2018-01-11T22:56:07.510Z,101467
2018-01-11T23:01:29.208Z,101471
2018-01-11T23:08:27.478Z,101480
2018-01-11T23:11:01.871Z,101479
2018-01-11T23:13:55.220Z,101482
2018-01-11T23:34:49.547Z,101492
2018-01-11T23:43:08.088Z,101512
2018-01-11T23:48:09.979Z,101510
2018-01-11T23:56:15.344Z,101510
